createdAt,value
2023-03-16T05:44:19.803Z,100.00
2023-03-16T05:47:06.812Z,100.00
2023-03-16T05:49:36.339Z,100.00
2023-03-16T05:52:05.595Z,100.00
2023-03-16T05:54:32.884Z,100.00
2023-03-16T05:57:06.431Z,100.00
2023-03-16T05:59:33.454Z,100.00
2023-03-16T06:02:01.539Z,100.00
2023-03-16T06:04:28.386Z,100.00
2023-03-16T06:06:55.107Z,100.00
2023-03-16T06:09:29.125Z,100.00
2023-03-16T06:11:55.957Z,100.00
2023-03-16T06:14:23.339Z,100.00
2023-03-16T06:16:56.341Z,100.00
2023-03-16T06:19:23.600Z,100.00
2023-03-16T06:21:54.238Z,100.00
2023-03-16T06:24:25.130Z,100.00
2023-03-16T06:26:53.015Z,100.00
2023-03-16T06:29:20.161Z,100.00
2023-03-16T06:31:46.956Z,100.00
2023-03-16T06:34:14.963Z,100.00
2023-03-16T06:36:46.280Z,100.00
2023-03-16T06:39:19.796Z,100.00
2023-03-16T06:41:52.966Z,100.00
2023-03-16T06:48:53.275Z,100.00
2023-03-16T06:52:20.231Z,100.00
2023-03-16T06:55:38.082Z,100.00
2023-03-16T06:59:05.839Z,100.00
2023-03-16T07:02:44.080Z,99.95
2023-03-16T07:05:56.175Z,98.84
2023-03-16T07:08:42.055Z,97.92
2023-03-16T07:11:09.362Z,96.99
2023-03-16T07:13:36.207Z,96.58
2023-03-16T07:16:04.322Z,96.09
2023-03-16T07:18:37.456Z,96.18
2023-03-16T07:21:04.234Z,95.73
2023-03-16T07:23:33.826Z,94.99
2023-03-16T07:26:03.444Z,93.92
2023-03-16T07:28:34.561Z,92.70
2023-03-16T07:31:04.360Z,92.09
2023-03-16T07:33:37.737Z,91.31
2023-03-16T07:36:06.314Z,90.38
2023-03-16T07:38:33.809Z,89.70
2023-03-16T07:41:05.098Z,89.10
2023-03-16T07:43:33.804Z,88.54
2023-03-16T07:46:01.117Z,87.60
2023-03-16T07:48:28.973Z,86.95
2023-03-16T07:50:59.273Z,85.33
2023-03-16T07:53:32.688Z,85.22
2023-03-16T07:56:12.036Z,84.35
2023-03-16T07:58:39.148Z,83.12
2023-03-16T08:01:05.996Z,82.75
2023-03-16T08:03:33.670Z,81.96
2023-03-16T08:06:04.837Z,81.55
2023-03-16T08:08:32.726Z,80.87
2023-03-16T08:11:00.211Z,80.40
2023-03-16T08:13:36.128Z,80.14
2023-03-16T08:16:04.809Z,79.77
2023-03-16T08:18:36.841Z,79.69
2023-03-16T08:21:04.298Z,79.60
2023-03-16T08:23:33.008Z,79.00
2023-03-16T08:26:00.516Z,78.55
2023-03-16T08:28:29.835Z,78.07
2023-03-16T08:30:57.779Z,78.15
2023-03-16T08:33:36.543Z,78.72
2023-03-16T08:36:06.856Z,78.95
2023-03-16T08:38:34.372Z,78.83
2023-03-16T08:41:04.426Z,78.71
2023-03-16T08:43:32.066Z,78.89
2023-03-16T08:46:05.592Z,79.04
2023-03-16T08:48:42.749Z,78.77
2023-03-16T08:51:12.358Z,79.22
2023-03-16T08:53:39.583Z,79.51
2023-03-16T08:56:08.015Z,79.57
2023-03-16T08:58:35.241Z,79.24
2023-03-16T09:01:03.294Z,79.48
2023-03-16T09:03:34.674Z,79.29
2023-03-16T09:06:05.036Z,79.47
2023-03-16T09:08:31.950Z,79.37
2023-03-16T09:11:14.306Z,79.12
2023-03-16T09:14:06.515Z,78.48
2023-03-16T09:16:35.797Z,78.43
2023-03-16T09:19:11.822Z,78.41
2023-03-16T09:21:39.361Z,78.19
2023-03-16T09:24:08.374Z,77.68
2023-03-16T09:26:39.183Z,78.14
2023-03-16T09:29:06.445Z,78.24
2023-03-16T09:31:35.698Z,77.40
2023-03-16T09:34:05.411Z,76.63
2023-03-16T09:36:35.316Z,76.18
2023-03-16T09:39:04.391Z,75.62
2023-03-16T09:41:44.113Z,75.51
2023-03-16T09:44:14.622Z,75.73
2023-03-16T09:46:46.654Z,75.92
2023-03-16T09:49:20.348Z,75.88
2023-03-16T09:52:02.724Z,75.75
2023-03-16T09:58:05.242Z,74.15
2023-03-16T10:00:46.967Z,73.52
2023-03-16T10:07:24.670Z,73.45
2023-03-16T10:10:35.161Z,72.27
2023-03-16T10:13:22.722Z,71.63
2023-03-16T10:15:50.414Z,70.66
2023-03-16T10:18:29.676Z,69.12
2023-03-16T10:20:58.010Z,68.16
2023-03-16T10:23:25.485Z,68.19
2023-03-16T10:25:59.954Z,68.27
2023-03-16T10:28:31.801Z,67.83
2023-03-16T10:31:04.245Z,67.55
2023-03-16T10:33:35.024Z,67.07
2023-03-16T10:36:29.780Z,66.96
2023-03-16T10:39:21.618Z,66.52
2023-03-16T10:41:55.524Z,66.57
2023-03-16T10:44:26.420Z,66.19
2023-03-16T10:47:02.412Z,66.42
2023-03-16T10:49:34.288Z,66.49
2023-03-16T10:52:04.273Z,67.03
2023-03-16T10:54:33.054Z,67.01
2023-03-16T10:57:01.439Z,66.43
2023-03-16T10:59:28.830Z,66.74
2023-03-16T11:01:55.540Z,67.55
2023-03-16T11:04:22.478Z,67.55
2023-03-16T11:06:53.677Z,67.64
2023-03-16T11:09:24.111Z,67.94
2023-03-16T11:11:51.757Z,68.03
2023-03-16T11:14:19.496Z,67.69
2023-03-16T11:16:58.096Z,66.86
2023-03-16T11:19:28.611Z,67.07
2023-03-16T11:22:13.800Z,66.72
2023-03-16T11:24:43.928Z,67.34
2023-03-16T11:27:31.480Z,67.67
2023-03-16T11:30:04.739Z,67.60
2023-03-16T11:32:39.662Z,66.88
2023-03-16T11:35:12.921Z,67.02
2023-03-16T11:37:59.205Z,66.82
2023-03-16T11:40:40.948Z,67.14
2023-03-16T11:43:37.467Z,67.31
2023-03-16T11:46:22.816Z,65.68
2023-03-16T11:48:59.426Z,65.10
2023-03-16T11:51:28.991Z,65.72
2023-03-16T11:54:08.991Z,66.09
2023-03-16T11:56:39.062Z,64.74
2023-03-16T11:59:24.814Z,64.17
2023-03-16T12:02:00.266Z,64.77
2023-03-16T12:04:28.288Z,65.06
2023-03-16T12:07:02.580Z,64.45
2023-03-16T12:09:42.215Z,64.43
2023-03-16T12:12:24.405Z,64.38
2023-03-16T12:14:54.716Z,64.36
2023-03-16T12:17:25.133Z,64.73
2023-03-16T12:19:54.435Z,64.27
2023-03-16T12:22:41.497Z,64.21
2023-03-16T12:25:12.541Z,64.31
2023-03-16T12:27:39.172Z,64.82
2023-03-16T12:30:05.765Z,65.45
2023-03-16T12:32:34.044Z,65.45
2023-03-16T12:35:21.733Z,65.99
2023-03-16T12:37:55.636Z,66.11
2023-03-16T12:40:44.000Z,66.49
2023-03-16T12:43:26.557Z,66.93
2023-03-16T12:46:01.503Z,66.75
2023-03-16T12:48:29.732Z,66.84
2023-03-16T12:50:57.923Z,67.37
2023-03-16T12:53:28.376Z,67.63
2023-03-16T12:55:56.698Z,67.91
2023-03-16T12:58:23.802Z,67.98
2023-03-16T13:00:57.688Z,68.34
2023-03-16T13:03:24.696Z,67.94
2023-03-16T13:05:53.416Z,68.36
2023-03-16T13:08:20.853Z,68.86
2023-03-16T13:11:11.518Z,69.34
2023-03-16T13:13:52.190Z,69.80
